Terminal Aerodrome Forecast
Issued by NWS

Home | Current Version | Previous Version | Graphics & Text | Print | Product List | Glossary On
Versions: 1 2 3 4 5 6 7 8 9 10 11 12 13 14 15 16 17 18 19 20 21 22 23 24 25 26 27
750
FTUS43 KBIS 231739
TAFMOT
TAF
KMOT 231739Z 2318/2418 10014G21KT P6SM -SHRA VCTS OVC030CB
     FM232000 10012G20KT P6SM -SHRA VCTS OVC010CB
     FM240300 10008KT P6SM OVC008
     FM240500 10008KT 6SM -SHRA VCTS OVC006CB
     FM240800 09008KT P6SM OVC005
     FM241400 12008KT P6SM BKN010
     FM241600 15010G16KT P6SM BKN010=

USA.gov is the U.S. government's official web portal to all federal, state and local government web resources and services.